createdAt,value
2019-03-24T00:00:35.984Z,32.39
2019-03-24T00:01:41.018Z,31.19
2019-03-24T00:02:35.964Z,30.69
2019-03-24T00:03:35.960Z,31.09
2019-03-24T00:04:35.955Z,30.69
2019-03-24T00:05:35.948Z,31.49
2019-03-24T00:06:35.943Z,30.69
2019-03-24T00:07:35.942Z,30.68
2019-03-24T00:08:35.927Z,30.69
2019-03-24T00:09:35.926Z,31.49
2019-03-24T00:10:35.915Z,30.79
2019-03-24T00:11:35.912Z,31.78
2019-03-24T00:12:35.903Z,30.69
2019-03-24T00:13:35.897Z,30.79
2019-03-24T00:14:35.892Z,30.89
2019-03-24T00:15:35.889Z,30.69
2019-03-24T00:16:35.882Z,30.69
2019-03-24T00:17:35.873Z,30.87
2019-03-24T00:18:35.866Z,32.37
2019-03-24T00:19:35.861Z,31.29
2019-03-24T00:20:35.854Z,30.99
2019-03-24T00:21:35.847Z,30.69
2019-03-24T00:22:35.843Z,30.79
2019-03-24T00:23:35.837Z,32.09
2019-03-24T00:24:35.829Z,30.79
2019-03-24T00:25:35.830Z,30.79
2019-03-24T00:26:35.820Z,30.79
2019-03-24T00:27:35.836Z,31.09
2019-03-24T00:28:35.828Z,31.99
2019-03-24T00:29:35.821Z,30.78
2019-03-24T00:30:35.814Z,30.79
2019-03-24T00:31:35.807Z,31.99
2019-03-24T00:32:35.800Z,30.59
2019-03-24T00:33:35.794Z,30.79
2019-03-24T00:34:35.790Z,30.89
2019-03-24T00:35:35.782Z,30.89
2019-03-24T00:36:35.773Z,30.89
2019-03-24T00:37:35.770Z,31.39
2019-03-24T00:38:35.761Z,30.69
2019-03-24T00:39:35.754Z,30.89
2019-03-24T00:40:35.746Z,30.79
2019-03-24T00:41:35.738Z,30.89
2019-03-24T00:42:35.747Z,30.69
2019-03-24T00:43:35.729Z,30.79
2019-03-24T00:44:35.717Z,30.79
2019-03-24T00:45:37.015Z,31.39
2019-03-24T00:46:35.721Z,30.69
2019-03-24T00:47:35.712Z,31.89
2019-03-24T00:48:35.707Z,31.89
2019-03-24T00:49:35.702Z,31.99
2019-03-24T00:50:35.695Z,31.49
2019-03-24T00:51:35.693Z,30.89
2019-03-24T00:52:35.687Z,31.99
2019-03-24T00:53:35.676Z,32.29
2019-03-24T00:54:35.674Z,30.89
2019-03-24T00:55:35.666Z,30.79
2019-03-24T00:56:35.657Z,30.59
2019-03-24T00:57:37.571Z,30.59
2019-03-24T00:58:35.645Z,30.79
2019-03-24T00:59:35.640Z,30.89
2019-03-24T01:00:35.635Z,31.19
2019-03-24T01:01:35.634Z,30.49
2019-03-24T01:02:35.617Z,31.79
2019-03-24T01:03:35.614Z,30.89
2019-03-24T01:04:35.605Z,30.89
2019-03-24T01:05:35.599Z,30.79
2019-03-24T01:06:35.594Z,30.69
2019-03-24T01:07:35.588Z,30.59
2019-03-24T01:08:35.580Z,30.49
2019-03-24T01:09:35.576Z,31.99
2019-03-24T01:10:35.567Z,30.49
2019-03-24T01:11:35.561Z,30.89
2019-03-24T01:12:35.553Z,30.69
2019-03-24T01:13:35.552Z,31.39
2019-03-24T01:14:35.555Z,32.29
2019-03-24T01:15:35.534Z,32.19
2019-03-24T01:16:35.554Z,32.29
2019-03-24T01:17:35.545Z,30.79
2019-03-24T01:18:35.538Z,30.89
2019-03-24T01:19:35.533Z,30.69
2019-03-24T01:20:35.532Z,30.79
2019-03-24T01:21:35.531Z,30.79
2019-03-24T01:22:35.512Z,30.59
2019-03-24T01:23:35.506Z,32.29
2019-03-24T01:24:35.507Z,30.90
2019-03-24T01:25:35.495Z,30.89
2019-03-24T01:26:35.490Z,32.29
2019-03-24T01:27:35.482Z,30.79
2019-03-24T01:28:35.474Z,30.89
2019-03-24T01:29:35.470Z,30.59
2019-03-24T01:30:35.463Z,30.99
2019-03-24T01:31:35.455Z,32.01
2019-03-24T01:32:35.449Z,30.99
2019-03-24T01:33:35.444Z,31.99
2019-03-24T01:34:35.438Z,30.60
2019-03-24T01:35:35.433Z,32.11
2019-03-24T01:36:35.430Z,30.59
2019-03-24T01:37:35.442Z,30.79
2019-03-24T01:38:35.441Z,30.59
2019-03-24T01:39:35.429Z,32.29
2019-03-24T01:40:35.421Z,32.09
2019-03-24T01:41:35.431Z,31.01
2019-03-24T01:42:35.408Z,32.09
2019-03-24T01:43:35.399Z,30.59
2019-03-24T01:44:35.393Z,30.60
2019-03-24T01:45:35.389Z,30.59
2019-03-24T01:46:35.379Z,30.60
2019-03-24T01:47:35.371Z,30.60
2019-03-24T01:48:35.370Z,32.19
2019-03-24T01:49:35.364Z,30.59
2019-03-24T01:50:35.356Z,30.89
2019-03-24T01:51:35.352Z,30.59
2019-03-24T01:52:35.344Z,30.90
2019-03-24T01:53:35.381Z,30.81
2019-03-24T01:54:35.333Z,30.90
2019-03-24T01:55:35.325Z,32.11
2019-03-24T01:56:35.323Z,30.90
2019-03-24T01:57:35.311Z,30.81
2019-03-24T01:58:35.309Z,30.89
2019-03-24T01:59:35.296Z,31.31
2019-03-24T02:00:35.291Z,30.89
2019-03-24T02:01:35.285Z,31.40
2019-03-24T02:02:35.278Z,30.89
2019-03-24T02:03:35.271Z,31.40
2019-03-24T02:04:35.264Z,31.19
2019-03-24T02:05:35.255Z,30.90
2019-03-24T02:06:35.271Z,30.90
2019-03-24T02:07:35.264Z,31.81
2019-03-24T02:08:35.256Z,31.40
2019-03-24T02:09:35.250Z,31.70
2019-03-24T02:10:35.241Z,30.90
2019-03-24T02:11:35.237Z,30.90
2019-03-24T02:12:35.232Z,30.90
2019-03-24T02:13:35.223Z,30.90
2019-03-24T02:14:35.216Z,30.90
2019-03-24T02:15:35.209Z,31.51
2019-03-24T02:16:35.201Z,31.40
2019-03-24T02:17:35.197Z,30.90
2019-03-24T02:18:35.188Z,31.10
2019-03-24T02:19:35.184Z,31.39
2019-03-24T02:20:35.176Z,31.10
2019-03-24T02:21:35.195Z,31.01
2019-03-24T02:22:35.193Z,31.70
2019-03-24T02:23:35.187Z,31.40
2019-03-24T02:24:35.180Z,31.51
2019-03-24T02:25:35.174Z,31.51
2019-03-24T02:26:35.167Z,31.19
2019-03-24T02:27:35.157Z,31.20
2019-03-24T02:28:35.154Z,31.51
2019-03-24T02:29:35.145Z,31.20
2019-03-24T02:30:35.140Z,31.61
2019-03-24T02:31:35.134Z,31.10
2019-03-24T02:32:35.126Z,31.10
2019-03-24T02:33:35.137Z,32.20
2019-03-24T02:34:35.111Z,31.51
2019-03-24T02:35:35.106Z,30.60
2019-03-24T02:36:35.102Z,31.51
2019-03-24T02:37:35.090Z,31.81
2019-03-24T02:38:35.082Z,31.51
2019-03-24T02:39:35.076Z,32.29
2019-03-24T02:40:35.077Z,31.49
2019-03-24T02:41:35.062Z,31.51
2019-03-24T02:42:35.060Z,31.31
2019-03-24T02:43:35.055Z,30.81
2019-03-24T02:44:35.045Z,31.61
2019-03-24T02:45:35.038Z,31.31
2019-03-24T02:46:35.030Z,31.20
2019-03-24T02:47:35.026Z,31.31
2019-03-24T02:48:35.017Z,31.51
2019-03-24T02:49:35.015Z,31.31
2019-03-24T02:50:35.004Z,31.61
2019-03-24T02:51:34.997Z,31.51
2019-03-24T02:52:34.989Z,31.51
2019-03-24T02:53:34.983Z,31.51
2019-03-24T02:54:34.980Z,31.51
2019-03-24T02:55:34.968Z,31.51
2019-03-24T02:56:34.975Z,30.81
2019-03-24T02:57:34.966Z,31.20
2019-03-24T02:58:34.978Z,31.31
2019-03-24T02:59:34.971Z,30.81
2019-03-24T03:00:34.939Z,31.31
2019-03-24T03:01:34.932Z,31.51
2019-03-24T03:02:34.928Z,31.31
2019-03-24T03:03:34.920Z,31.31
2019-03-24T03:04:34.914Z,31.51
2019-03-24T03:05:34.907Z,31.51
2019-03-24T03:06:34.941Z,31.32
2019-03-24T03:07:34.901Z,31.51
2019-03-24T03:08:34.894Z,31.51
2019-03-24T03:09:34.885Z,31.31
2019-03-24T03:10:34.931Z,31.51
2019-03-24T03:11:34.877Z,30.90
2019-03-24T03:12:34.864Z,31.31
2019-03-24T03:13:34.861Z,32.01
2019-03-24T03:14:34.853Z,31.31
2019-03-24T03:15:34.847Z,31.52
2019-03-24T03:16:38.583Z,31.51
2019-03-24T03:17:34.832Z,31.51
2019-03-24T03:18:34.829Z,30.90
2019-03-24T03:19:34.824Z,31.32
2019-03-24T03:20:34.838Z,31.31
2019-03-24T03:21:34.813Z,31.01
2019-03-24T03:22:34.807Z,31.31
2019-03-24T03:23:34.798Z,31.32
2019-03-24T03:24:34.787Z,31.81
2019-03-24T03:25:34.785Z,31.61
2019-03-24T03:26:34.777Z,31.01
2019-03-24T03:27:34.774Z,31.61
2019-03-24T03:28:34.762Z,31.51
2019-03-24T03:29:34.769Z,31.51
2019-03-24T03:30:34.782Z,31.31
2019-03-24T03:31:34.858Z,31.61
2019-03-24T03:32:34.768Z,31.31
2019-03-24T03:33:34.766Z,30.90
2019-03-24T03:34:34.787Z,31.22
2019-03-24T03:35:34.724Z,31.31
2019-03-24T03:36:34.710Z,31.52
2019-03-24T03:37:34.721Z,31.22
2019-03-24T03:38:34.696Z,30.92
2019-03-24T03:39:34.689Z,31.32
2019-03-24T03:40:34.743Z,31.52
2019-03-24T03:41:34.703Z,31.01
2019-03-24T03:42:34.669Z,31.31
2019-03-24T03:43:34.664Z,31.52
2019-03-24T03:44:34.669Z,31.12
2019-03-24T03:45:34.649Z,31.01
2019-03-24T03:46:34.649Z,31.51
2019-03-24T03:47:34.637Z,31.52
2019-03-24T03:48:34.630Z,31.52
2019-03-24T03:49:34.635Z,31.32
2019-03-24T03:50:34.615Z,31.51
2019-03-24T03:51:34.614Z,31.70
2019-03-24T03:52:34.605Z,31.31
2019-03-24T03:53:34.596Z,31.02
2019-03-24T03:54:34.589Z,30.90
2019-03-24T03:55:34.582Z,31.42
2019-03-24T03:56:34.579Z,31.40
2019-03-24T03:57:34.569Z,31.22
2019-03-24T03:58:34.569Z,31.81
2019-03-24T03:59:34.572Z,31.22
2019-03-24T04:00:34.588Z,31.32
2019-03-24T04:01:34.581Z,31.22
2019-03-24T04:02:34.576Z,32.01
2019-03-24T04:03:34.564Z,31.32
2019-03-24T04:04:34.567Z,31.20
2019-03-24T04:05:34.554Z,31.02
2019-03-24T04:06:34.553Z,31.32
2019-03-24T04:07:34.542Z,31.02
2019-03-24T04:08:34.533Z,32.02
2019-03-24T04:09:34.526Z,31.32
2019-03-24T04:10:34.521Z,31.42
2019-03-24T04:11:34.513Z,31.32
2019-03-24T04:12:34.507Z,31.22
2019-03-24T04:13:34.503Z,31.32
2019-03-24T04:14:34.496Z,31.02
2019-03-24T04:15:34.492Z,31.10
2019-03-24T04:16:34.487Z,31.12
2019-03-24T04:17:34.480Z,31.02
2019-03-24T04:18:34.488Z,31.22
2019-03-24T04:19:34.486Z,31.12
2019-03-24T04:20:34.481Z,31.22
2019-03-24T04:21:34.470Z,31.12
2019-03-24T04:22:34.474Z,30.92
2019-03-24T04:23:34.455Z,31.32
2019-03-24T04:24:34.446Z,31.32
2019-03-24T04:25:34.457Z,31.12
2019-03-24T04:26:34.434Z,31.32
2019-03-24T04:27:34.430Z,31.22
2019-03-24T04:28:34.420Z,31.12
2019-03-24T04:29:34.413Z,31.32
2019-03-24T04:30:34.411Z,31.22
2019-03-24T04:31:34.402Z,31.32
2019-03-24T04:32:34.397Z,31.02
2019-03-24T04:33:34.388Z,31.12
2019-03-24T04:34:34.390Z,31.32
2019-03-24T04:35:34.377Z,31.12
2019-03-24T04:36:34.372Z,31.32
2019-03-24T04:37:34.365Z,31.22
2019-03-24T04:38:34.355Z,31.32
2019-03-24T04:39:34.346Z,31.32
2019-03-24T04:40:34.338Z,31.22
2019-03-24T04:41:34.362Z,31.22
2019-03-24T04:42:34.353Z,31.32
2019-03-24T04:43:34.353Z,31.82
2019-03-24T04:44:34.340Z,31.32
2019-03-24T04:45:34.336Z,31.02
2019-03-24T04:46:34.327Z,30.72
2019-03-24T04:47:34.318Z,31.62
2019-03-24T04:48:34.312Z,31.72
2019-03-24T04:49:34.306Z,31.12
2019-03-24T04:50:34.300Z,30.72
2019-03-24T04:51:34.294Z,31.12
2019-03-24T04:52:34.283Z,31.32
2019-03-24T04:53:34.279Z,31.32
2019-03-24T04:54:34.273Z,31.52
2019-03-24T04:55:34.263Z,31.42
2019-03-24T04:56:34.261Z,31.82
2019-03-24T04:57:34.252Z,31.52
2019-03-24T04:58:34.244Z,30.72
2019-03-24T04:59:34.237Z,31.92
2019-03-24T05:00:34.231Z,30.73
2019-03-24T05:01:34.227Z,30.72
2019-03-24T05:02:34.220Z,31.82
2019-03-24T05:03:34.214Z,31.12
2019-03-24T05:04:34.206Z,30.72
2019-03-24T05:05:34.205Z,30.72
2019-03-24T05:06:34.195Z,32.02
2019-03-24T05:07:34.188Z,31.84
2019-03-24T05:08:34.185Z,31.53
2019-03-24T05:09:34.178Z,30.93
2019-03-24T05:10:34.172Z,30.92
2019-03-24T05:11:34.165Z,31.93
2019-03-24T05:12:34.192Z,31.42
2019-03-24T05:13:34.154Z,30.73
2019-03-24T05:14:34.152Z,30.93
2019-03-24T05:15:34.140Z,31.64
2019-03-24T05:16:34.134Z,31.62
2019-03-24T05:17:34.131Z,30.72
2019-03-24T05:18:34.123Z,31.72
2019-03-24T05:19:34.116Z,32.14
2019-03-24T05:20:34.113Z,30.92
2019-03-24T05:21:34.105Z,31.73
2019-03-24T05:22:34.097Z,31.93
2019-03-24T05:23:34.092Z,31.72
2019-03-24T05:24:34.085Z,31.42
2019-03-24T05:25:34.085Z,31.72
2019-03-24T05:26:34.067Z,31.72
2019-03-24T05:27:34.061Z,31.93
2019-03-24T05:28:34.054Z,31.42
2019-03-24T05:29:34.048Z,31.64
2019-03-24T05:30:34.039Z,31.92
2019-03-24T05:31:34.032Z,32.04
2019-03-24T05:32:34.024Z,31.92
2019-03-24T05:33:34.016Z,31.82
2019-03-24T05:34:34.012Z,31.73
2019-03-24T05:35:34.007Z,31.92
2019-03-24T05:36:34.003Z,31.02
2019-03-24T05:37:34.004Z,31.72
2019-03-24T05:38:33.990Z,31.72
2019-03-24T05:39:33.982Z,31.92
2019-03-24T05:40:33.979Z,30.72
2019-03-24T05:41:33.967Z,30.92
2019-03-24T05:42:33.959Z,31.03
2019-03-24T05:43:33.954Z,30.73
2019-03-24T05:44:33.948Z,31.52
2019-03-24T05:45:33.946Z,30.72
2019-03-24T05:46:33.937Z,31.62
2019-03-24T05:47:37.389Z,31.93
2019-03-24T05:48:33.923Z,31.12
2019-03-24T05:49:33.927Z,31.02
2019-03-24T05:50:33.909Z,31.12
2019-03-24T05:51:33.903Z,31.02
2019-03-24T05:52:33.898Z,31.53
2019-03-24T05:53:33.890Z,31.32
2019-03-24T05:54:33.902Z,31.12
2019-03-24T05:55:33.878Z,31.62
2019-03-24T05:56:33.872Z,31.02
2019-03-24T05:57:33.866Z,31.22
2019-03-24T05:58:33.857Z,31.12
2019-03-24T05:59:33.876Z,31.02
2019-03-24T06:00:33.868Z,31.02
2019-03-24T06:01:33.865Z,31.32
2019-03-24T06:02:33.858Z,31.22
2019-03-24T06:03:33.853Z,31.42
2019-03-24T06:04:33.847Z,31.22
2019-03-24T06:05:33.838Z,30.92
2019-03-24T06:06:33.833Z,31.02
2019-03-24T06:07:33.829Z,31.52
2019-03-24T06:08:35.769Z,31.32
2019-03-24T06:09:33.821Z,30.92
2019-03-24T06:10:33.817Z,31.52
2019-03-24T06:11:33.803Z,31.32
2019-03-24T06:12:33.797Z,31.90
2019-03-24T06:13:33.790Z,31.52
2019-03-24T06:14:33.781Z,31.10
2019-03-24T06:15:33.774Z,31.02
2019-03-24T06:16:33.769Z,30.82
2019-03-24T06:17:33.763Z,30.90
2019-03-24T06:18:33.757Z,30.90
2019-03-24T06:19:33.756Z,30.92
2019-03-24T06:20:33.742Z,32.22
2019-03-24T06:21:33.739Z,31.02
2019-03-24T06:22:33.732Z,30.82
2019-03-24T06:23:33.722Z,30.92
2019-03-24T06:24:33.715Z,30.82
2019-03-24T06:25:35.036Z,31.12
2019-03-24T06:26:33.704Z,31.02
2019-03-24T06:27:33.698Z,31.40
2019-03-24T06:28:33.687Z,31.40
2019-03-24T06:29:33.682Z,31.81
2019-03-24T06:30:33.675Z,31.10
2019-03-24T06:31:33.668Z,31.10
2019-03-24T06:32:33.661Z,30.90
2019-03-24T06:33:33.657Z,31.20
2019-03-24T06:34:33.649Z,31.31
2019-03-24T06:35:33.645Z,31.10
2019-03-24T06:36:33.637Z,31.10
2019-03-24T06:37:33.653Z,31.31
2019-03-24T06:38:33.648Z,31.29
2019-03-24T06:39:33.638Z,31.20
2019-03-24T06:40:33.634Z,31.40
2019-03-24T06:41:33.630Z,31.59
2019-03-24T06:42:33.621Z,31.29
2019-03-24T06:43:33.615Z,31.70
2019-03-24T06:44:33.608Z,31.29
2019-03-24T06:45:33.606Z,31.69
2019-03-24T06:46:33.597Z,31.29
2019-03-24T06:47:33.590Z,31.19
2019-03-24T06:48:33.584Z,31.09
2019-03-24T06:49:33.576Z,31.29
2019-03-24T06:50:33.570Z,30.49
2019-03-24T06:51:33.566Z,30.89
2019-03-24T06:52:33.559Z,31.48
2019-03-24T06:53:33.565Z,30.89
2019-03-24T06:54:33.558Z,30.49
2019-03-24T06:55:33.550Z,30.69
2019-03-24T06:56:33.542Z,30.57
2019-03-24T06:57:33.538Z,30.78
2019-03-24T06:58:33.533Z,30.98
2019-03-24T06:59:33.529Z,30.38
2019-03-24T07:00:33.522Z,30.78
2019-03-24T07:01:33.512Z,30.68
2019-03-24T07:02:33.506Z,30.69
2019-03-24T07:03:33.496Z,30.57
2019-03-24T07:04:33.494Z,31.07
2019-03-24T07:05:33.488Z,30.98
2019-03-24T07:06:34.770Z,30.78
2019-03-24T07:07:33.479Z,30.68
2019-03-24T07:08:33.470Z,30.78
2019-03-24T07:09:33.466Z,30.87
2019-03-24T07:10:33.459Z,30.36
2019-03-24T07:11:33.452Z,30.36
2019-03-24T07:12:33.445Z,30.36
2019-03-24T07:13:33.442Z,30.86
2019-03-24T07:14:33.432Z,30.16
2019-03-24T07:15:33.433Z,30.05
2019-03-24T07:16:33.428Z,30.06
2019-03-24T07:17:33.422Z,30.05
2019-03-24T07:18:33.419Z,30.45
2019-03-24T07:19:33.414Z,30.05
2019-03-24T07:20:33.404Z,29.94
2019-03-24T07:21:33.397Z,29.75
2019-03-24T07:22:33.392Z,30.45
2019-03-24T07:23:33.382Z,30.43
2019-03-24T07:24:33.412Z,29.65
2019-03-24T07:25:33.373Z,29.63
2019-03-24T07:26:33.367Z,29.63
2019-03-24T07:27:33.360Z,29.43
2019-03-24T07:28:33.358Z,29.24
2019-03-24T07:29:33.345Z,29.33
2019-03-24T07:30:33.336Z,29.54
2019-03-24T07:31:33.331Z,29.54
2019-03-24T07:32:33.324Z,29.72
2019-03-24T07:33:33.317Z,29.62
2019-03-24T07:34:33.309Z,30.02
2019-03-24T07:35:33.300Z,29.92
2019-03-24T07:36:33.295Z,29.62
2019-03-24T07:37:33.289Z,29.62
2019-03-24T07:38:33.282Z,30.02
2019-03-24T07:39:33.275Z,29.51
2019-03-24T07:40:33.268Z,30.22
2019-03-24T07:41:33.264Z,29.90
2019-03-24T07:42:33.256Z,28.91
2019-03-24T07:43:33.288Z,28.81
2019-03-24T07:44:33.243Z,29.41
2019-03-24T07:45:33.239Z,29.11
2019-03-24T07:46:33.231Z,29.09
2019-03-24T07:47:33.222Z,29.39
2019-03-24T07:48:33.219Z,29.29
2019-03-24T07:49:33.212Z,28.39
2019-03-24T07:50:33.207Z,28.69
2019-03-24T07:51:33.203Z,28.48
2019-03-24T07:52:33.192Z,28.78
2019-03-24T07:53:33.184Z,28.38
2019-03-24T07:54:33.176Z,28.17
2019-03-24T07:55:33.185Z,28.96
2019-03-24T07:56:33.169Z,28.86
2019-03-24T07:57:33.159Z,28.65
2019-03-24T07:58:33.151Z,28.25
2019-03-24T07:59:33.144Z,27.94
2019-03-24T08:00:33.139Z,28.13
2019-03-24T08:01:33.131Z,28.03
2019-03-24T08:02:33.126Z,28.02
2019-03-24T08:03:33.120Z,27.81
2019-03-24T08:04:33.114Z,27.80
2019-03-24T08:05:33.108Z,27.31
2019-03-24T08:06:33.101Z,26.50
2019-03-24T08:07:33.132Z,27.00
2019-03-24T08:08:33.088Z,26.19
2019-03-24T08:09:33.082Z,26.19
2019-03-24T08:10:33.076Z,26.47
2019-03-24T08:11:33.073Z,26.28
2019-03-24T08:12:33.068Z,25.87
2019-03-24T08:13:33.054Z,25.67
2019-03-24T08:14:33.049Z,26.05
2019-03-24T08:15:33.043Z,25.46
2019-03-24T08:16:33.036Z,25.35
2019-03-24T08:17:33.029Z,25.84
2019-03-24T08:18:33.021Z,25.15
2019-03-24T08:19:33.018Z,25.34
2019-03-24T08:20:33.009Z,25.83
2019-03-24T08:21:33.004Z,24.33
2019-03-24T08:22:32.999Z,24.62
2019-03-24T08:23:32.997Z,24.62
2019-03-24T08:24:32.989Z,24.60
2019-03-24T08:25:32.979Z,24.01
2019-03-24T08:26:32.986Z,24.11
2019-03-24T08:27:32.980Z,24.41
2019-03-24T08:28:32.975Z,24.00
2019-03-24T08:29:32.967Z,23.80
2019-03-24T08:30:32.963Z,24.00
2019-03-24T08:31:32.955Z,23.41
2019-03-24T08:32:32.953Z,23.69
2019-03-24T08:33:32.943Z,23.99
2019-03-24T08:34:32.935Z,24.07
2019-03-24T08:35:32.932Z,24.07
2019-03-24T08:36:32.924Z,23.78
2019-03-24T08:37:32.916Z,23.57
2019-03-24T08:38:32.911Z,23.57
2019-03-24T08:39:32.903Z,23.57
2019-03-24T08:40:32.904Z,23.18
2019-03-24T08:41:32.890Z,22.19
2019-03-24T08:42:32.887Z,22.38
2019-03-24T08:43:32.875Z,23.16
2019-03-24T08:44:32.871Z,22.67
2019-03-24T08:45:32.864Z,23.35
2019-03-24T08:46:32.853Z,22.97
2019-03-24T08:47:32.850Z,22.66
2019-03-24T08:48:40.367Z,22.67
2019-03-24T08:50:00.613Z,22.97
2019-03-24T08:51:00.611Z,23.56
2019-03-24T08:52:00.603Z,22.77
2019-03-24T08:53:00.595Z,23.37
2019-03-24T08:54:00.636Z,23.46
2019-03-24T08:55:00.585Z,22.66
2019-03-24T08:56:00.578Z,23.16
2019-03-24T08:57:00.574Z,23.35
2019-03-24T08:58:00.569Z,22.47
2019-03-24T08:59:00.563Z,22.97
2019-03-24T09:00:00.557Z,23.26
2019-03-24T09:01:00.562Z,22.18
2019-03-24T09:02:00.545Z,22.88
2019-03-24T09:03:00.537Z,23.48
2019-03-24T09:04:00.530Z,23.48
2019-03-24T09:05:00.526Z,23.77
2019-03-24T09:06:00.516Z,24.26
2019-03-24T09:07:00.508Z,23.78
2019-03-24T09:08:00.504Z,23.59
2019-03-24T09:09:00.499Z,23.59
2019-03-24T09:10:00.490Z,23.79
2019-03-24T09:11:00.485Z,24.40
2019-03-24T09:12:00.478Z,24.59
2019-03-24T09:13:00.472Z,25.00
2019-03-24T09:14:00.466Z,24.41
2019-03-24T09:15:00.457Z,24.52
2019-03-24T09:16:00.457Z,24.62
2019-03-24T09:17:00.448Z,25.31
2019-03-24T09:18:00.436Z,25.12
2019-03-24T09:19:00.429Z,25.12
2019-03-24T09:20:00.424Z,25.12
2019-03-24T09:21:00.419Z,25.52
2019-03-24T09:22:00.416Z,25.42
2019-03-24T09:23:00.407Z,25.62
2019-03-24T09:24:00.401Z,25.62
2019-03-24T09:25:00.393Z,25.22
2019-03-24T09:26:00.406Z,25.72
2019-03-24T09:27:00.381Z,25.12
2019-03-24T09:28:00.375Z,25.62
2019-03-24T09:29:00.371Z,25.62
2019-03-24T09:30:00.370Z,24.92
2019-03-24T09:31:00.358Z,25.10
2019-03-24T09:32:00.349Z,25.40
2019-03-24T09:33:00.343Z,25.59
2019-03-24T09:34:00.336Z,25.50
2019-03-24T09:35:00.522Z,24.40
2019-03-24T09:36:00.324Z,25.07
2019-03-24T09:37:00.316Z,24.27
2019-03-24T09:38:00.308Z,24.18
2019-03-24T09:39:00.302Z,23.78
2019-03-24T09:40:00.391Z,24.29
2019-03-24T09:41:00.290Z,23.89
2019-03-24T09:42:00.284Z,24.79
2019-03-24T09:43:00.280Z,24.59
2019-03-24T09:44:00.293Z,24.11
2019-03-24T09:45:00.348Z,25.21
2019-03-24T09:46:00.260Z,25.11
2019-03-24T09:47:00.259Z,25.11
2019-03-24T09:48:00.245Z,25.01
2019-03-24T09:49:03.299Z,24.62
2019-03-24T09:50:00.334Z,25.42
2019-03-24T09:51:00.227Z,25.43
2019-03-24T09:52:00.222Z,25.73
2019-03-24T09:53:00.216Z,25.74
2019-03-24T09:54:00.210Z,25.25
2019-03-24T09:55:00.326Z,26.94
2019-03-24T09:56:00.199Z,26.93
2019-03-24T09:57:00.190Z,26.75
2019-03-24T09:58:00.183Z,27.06
2019-03-24T09:59:00.177Z,27.75
2019-03-24T10:00:00.322Z,26.76
2019-03-24T10:01:00.163Z,26.77
2019-03-24T10:02:00.160Z,26.28
2019-03-24T10:03:00.155Z,26.47
2019-03-24T10:04:00.145Z,27.66
2019-03-24T10:05:00.140Z,27.66
2019-03-24T10:06:00.138Z,27.47
2019-03-24T10:07:00.127Z,27.27
2019-03-24T10:08:00.120Z,27.08
2019-03-24T10:09:00.127Z,26.88
2019-03-24T10:10:00.334Z,27.58
2019-03-24T10:11:00.135Z,27.89
2019-03-24T10:12:00.133Z,28.38
2019-03-24T10:13:00.134Z,27.99
2019-03-24T10:14:00.117Z,27.89
2019-03-24T10:15:00.292Z,27.89
2019-03-24T10:16:00.125Z,27.37
2019-03-24T10:17:00.122Z,27.38
2019-03-24T10:18:00.113Z,27.38
2019-03-24T10:19:00.104Z,26.98
2019-03-24T10:20:00.303Z,28.38
2019-03-24T10:21:00.091Z,27.99
2019-03-24T10:22:00.085Z,27.79
2019-03-24T10:23:00.075Z,27.16
2019-03-24T10:24:00.070Z,25.86
2019-03-24T10:25:00.115Z,27.03
2019-03-24T10:26:00.056Z,26.75
2019-03-24T10:27:00.049Z,26.76
2019-03-24T10:28:00.044Z,26.76
2019-03-24T10:29:00.037Z,26.55
2019-03-24T10:30:00.030Z,26.75
2019-03-24T10:31:00.024Z,26.75
2019-03-24T10:32:00.018Z,26.25
2019-03-24T10:33:00.011Z,26.56
2019-03-24T10:34:00.006Z,26.86
2019-03-24T10:35:00.001Z,26.56
2019-03-24T10:35:59.994Z,26.66
2019-03-24T10:36:59.986Z,26.56
2019-03-24T10:37:59.982Z,27.45
2019-03-24T10:38:59.971Z,27.06
2019-03-24T10:39:59.968Z,26.46
2019-03-24T10:40:59.957Z,27.06
2019-03-24T10:41:59.951Z,26.16
2019-03-24T10:42:59.945Z,26.47
2019-03-24T10:43:59.940Z,27.17
2019-03-24T10:44:59.935Z,27.56
2019-03-24T10:45:59.928Z,27.37
2019-03-24T10:46:59.921Z,27.27
2019-03-24T10:47:59.915Z,27.37
2019-03-24T10:48:59.909Z,27.37
2019-03-24T10:49:59.902Z,27.17
2019-03-24T10:50:59.894Z,27.17
2019-03-24T10:51:59.888Z,27.37
2019-03-24T10:52:59.884Z,27.17
2019-03-24T10:53:59.877Z,27.07
2019-03-24T10:54:59.868Z,26.88
2019-03-24T10:55:59.862Z,26.67
2019-03-24T10:56:59.854Z,27.58
2019-03-24T10:57:59.849Z,27.58
2019-03-24T10:58:59.841Z,27.88
2019-03-24T10:59:59.836Z,27.67
2019-03-24T11:00:59.828Z,27.97
2019-03-24T11:01:59.820Z,27.78
2019-03-24T11:02:59.816Z,28.07
2019-03-24T11:03:59.809Z,28.07
2019-03-24T11:04:59.802Z,27.97
2019-03-24T11:05:59.797Z,27.88
2019-03-24T11:06:59.787Z,27.78
2019-03-24T11:07:59.781Z,27.97
2019-03-24T11:08:59.777Z,28.47
2019-03-24T11:09:59.771Z,27.88
2019-03-24T11:10:59.763Z,28.47
2019-03-24T11:11:59.756Z,27.89
2019-03-24T11:12:59.749Z,27.89
2019-03-24T11:13:59.741Z,27.89
2019-03-24T11:14:59.733Z,27.89
2019-03-24T11:15:59.815Z,27.99
2019-03-24T11:16:59.723Z,27.89
2019-03-24T11:17:59.717Z,27.69
2019-03-24T11:18:59.710Z,27.89
2019-03-24T11:19:59.711Z,28.19
2019-03-24T11:20:59.697Z,27.89
2019-03-24T11:21:59.693Z,27.99
2019-03-24T11:22:59.683Z,27.99
2019-03-24T11:23:59.681Z,27.99
2019-03-24T11:24:59.673Z,27.49
2019-03-24T11:25:59.666Z,27.99
2019-03-24T11:26:59.661Z,27.99
2019-03-24T11:27:59.651Z,27.99
2019-03-24T11:28:59.648Z,27.79
2019-03-24T11:29:59.638Z,28.09
2019-03-24T11:30:59.634Z,28.09
2019-03-24T11:31:59.627Z,28.09
2019-03-24T11:32:59.618Z,28.20
2019-03-24T11:33:59.611Z,28.09
2019-03-24T11:34:59.605Z,27.89
2019-03-24T11:35:59.598Z,27.79
2019-03-24T11:36:59.595Z,27.89
2019-03-24T11:37:59.588Z,27.70
2019-03-24T11:38:59.578Z,28.10
2019-03-24T11:39:59.571Z,27.70
2019-03-24T11:40:59.566Z,28.70
2019-03-24T11:41:59.562Z,28.60
2019-03-24T11:42:59.550Z,28.10
2019-03-24T11:43:59.543Z,28.40
2019-03-24T11:44:59.539Z,28.90
2019-03-24T11:45:59.532Z,28.40
2019-03-24T11:46:59.525Z,28.70
2019-03-24T11:47:59.520Z,28.90
2019-03-24T11:48:59.528Z,28.30
2019-03-24T11:49:59.513Z,28.90
2019-03-24T11:50:59.501Z,28.80
2019-03-24T11:51:59.491Z,28.50
2019-03-24T11:52:59.489Z,28.50
2019-03-24T11:53:59.480Z,28.70
2019-03-24T11:54:59.472Z,28.50
2019-03-24T11:55:59.466Z,28.70
2019-03-24T11:56:59.457Z,28.70
2019-03-24T11:58:05.720Z,28.70
2019-03-24T11:59:27.233Z,28.80
2019-03-24T12:00:27.231Z,28.61
2019-03-24T12:01:37.753Z,28.81
2019-03-24T12:02:54.940Z,28.81
2019-03-24T12:03:54.941Z,28.91
2019-03-24T12:04:54.932Z,28.61
2019-03-24T12:05:54.925Z,28.51
2019-03-24T12:06:54.916Z,28.71
2019-03-24T12:07:54.963Z,28.41
2019-03-24T12:08:54.920Z,28.33
2019-03-24T12:09:54.916Z,28.63
2019-03-24T12:10:54.910Z,28.63
2019-03-24T12:11:54.907Z,28.43
2019-03-24T12:12:54.895Z,28.63
2019-03-24T12:13:54.889Z,28.63
2019-03-24T12:14:54.880Z,28.72
2019-03-24T12:15:54.873Z,28.63
2019-03-24T12:16:54.869Z,28.43
2019-03-24T12:17:54.859Z,28.63
2019-03-24T12:18:54.852Z,28.63
2019-03-24T12:19:57.008Z,28.93
2019-03-24T12:20:54.842Z,28.64
2019-03-24T12:21:54.835Z,28.93
2019-03-24T12:22:54.828Z,28.63
2019-03-24T12:23:54.821Z,28.63
2019-03-24T12:24:54.821Z,28.54
2019-03-24T12:25:54.808Z,29.13
2019-03-24T12:26:54.802Z,29.04
2019-03-24T12:27:54.795Z,29.33
2019-03-24T12:28:54.787Z,29.04
2019-03-24T12:29:54.781Z,29.24
2019-03-24T12:30:54.774Z,29.24
2019-03-24T12:31:54.771Z,29.43
2019-03-24T12:32:54.763Z,29.63
2019-03-24T12:33:54.756Z,29.43
2019-03-24T12:34:54.749Z,29.65
2019-03-24T12:35:54.744Z,29.84
2019-03-24T12:36:54.734Z,29.65
2019-03-24T12:37:54.727Z,29.65
2019-03-24T12:38:54.724Z,30.15
2019-03-24T12:39:54.765Z,29.55
2019-03-24T12:40:54.711Z,29.75
2019-03-24T12:41:54.703Z,29.85
2019-03-24T12:42:54.695Z,29.94
2019-03-24T12:43:54.691Z,29.55
2019-03-24T12:44:54.685Z,29.35
2019-03-24T12:45:54.679Z,29.25
2019-03-24T12:46:54.669Z,29.15
2019-03-24T12:47:54.668Z,29.66
2019-03-24T12:48:54.660Z,29.26
2019-03-24T12:49:54.654Z,29.56
2019-03-24T12:50:54.642Z,29.16
2019-03-24T12:51:54.638Z,29.26
2019-03-24T12:52:54.631Z,29.26
2019-03-24T12:53:54.624Z,29.46